AGA weather

Al Massira Airport
Agadir, Agadir Province, Morocco

Public forecast

Using degrees Celsius for public forecast. Weather courtesy of forecast.io.

Current aviation weather report (METAR) for Al Massira Airport

Retrieved 2019/10/15 07:30 UTC (0 seconds ago):

GMAD 150730Z 00000KT CAVOK 14/13 Q1018 NOSIG

Aviation forecast (TAF) for Al Massira Airport

Retrieved 2019/10/15 06:46 UTC (37 minutes ago):

TAF GMAD 150500Z 1506/1612 12004KT CAVOK BECMG 1512/1514 27012KT BECMG 1520/1522 14004KT